createdAt,value
2023-03-25T00:01:32.941Z,100178.91
2023-03-25T00:04:04.614Z,100182.91
2023-03-25T00:06:34.753Z,100191.44
2023-03-25T00:09:04.931Z,100186.30
2023-03-25T00:11:34.616Z,100192.77
2023-03-25T00:14:04.892Z,100184.25
2023-03-25T00:16:34.429Z,100183.64
2023-03-25T00:19:03.753Z,100187.44
2023-03-25T00:21:33.562Z,100189.57
2023-03-25T00:24:03.121Z,100193.56
2023-03-25T00:26:33.186Z,100180.25
2023-03-25T00:29:02.434Z,100177.28
2023-03-25T00:31:31.759Z,100179.64
2023-03-25T00:34:01.023Z,100180.78
2023-03-25T00:36:30.691Z,100179.95
2023-03-25T00:38:59.984Z,100176.64
2023-03-25T00:41:29.454Z,100184.64
2023-03-25T00:44:00.745Z,100176.64
2023-03-25T00:46:32.497Z,100181.47
2023-03-25T00:49:02.228Z,100171.95
2023-03-25T00:51:33.849Z,100167.95
2023-03-25T00:54:03.341Z,100164.16
2023-03-25T00:56:33.342Z,100169.80
2023-03-25T00:59:02.876Z,100176.34
2023-03-25T01:01:32.915Z,100176.14
2023-03-25T01:04:02.324Z,100176.25
2023-03-25T01:06:36.705Z,100176.98
2023-03-25T01:09:08.218Z,100179.31
2023-03-25T01:11:38.609Z,100179.95
2023-03-25T01:14:11.533Z,100167.33
2023-03-25T01:16:41.844Z,100173.98
2023-03-25T01:19:11.484Z,100173.68
2023-03-25T01:21:41.536Z,100172.34
2023-03-25T01:24:13.197Z,100166.72
2023-03-25T01:26:44.758Z,100176.34
2023-03-25T01:29:16.183Z,100170.52
2023-03-25T01:31:45.714Z,100172.34
2023-03-25T01:34:16.122Z,100158.20
2023-03-25T01:36:48.882Z,100165.39
2023-03-25T01:39:19.796Z,100168.35
2023-03-25T01:41:51.512Z,100155.34
2023-03-25T01:44:24.202Z,100162.72
2023-03-25T01:46:54.600Z,100157.70
2023-03-25T01:49:30.453Z,100157.39
2023-03-25T01:52:19.311Z,100153.70
2023-03-25T01:54:49.462Z,100152.57
2023-03-25T01:57:21.632Z,100147.05
2023-03-25T01:59:52.748Z,100165.89
2023-03-25T02:02:22.568Z,100169.88
2023-03-25T02:05:00.726Z,100160.26
2023-03-25T02:07:32.909Z,100165.39
2023-03-25T02:10:06.640Z,100157.39
2023-03-25T02:12:36.186Z,100161.39
2023-03-25T02:15:07.739Z,100142.11
2023-03-25T02:17:46.706Z,100149.91
2023-03-25T02:20:34.757Z,100149.08
2023-03-25T02:23:28.457Z,100146.74
2023-03-25T02:26:17.559Z,100136.28
2023-03-25T02:29:08.106Z,100128.49
2023-03-25T02:31:54.886Z,100137.28
2023-03-25T02:34:45.848Z,100135.16
2023-03-25T02:37:35.416Z,100135.66
2023-03-25T02:40:13.545Z,100136.48
2023-03-25T02:42:51.767Z,100134.81
2023-03-25T02:45:32.751Z,100135.16
2023-03-25T02:48:05.500Z,100136.48
2023-03-25T02:50:41.483Z,100134.81
2023-03-25T02:53:14.437Z,100126.03
2023-03-25T02:55:43.240Z,100125.83
2023-03-25T02:58:14.349Z,100127.66
2023-03-25T03:00:44.335Z,100126.83
2023-03-25T03:03:13.842Z,100126.03
2023-03-25T03:05:48.130Z,100124.17
2023-03-25T03:08:26.474Z,100126.50
2023-03-25T03:11:16.345Z,100124.83
2023-03-25T03:14:01.103Z,100114.52
2023-03-25T03:16:50.201Z,100119.38
2023-03-25T03:19:40.898Z,100109.38
2023-03-25T03:22:16.974Z,100114.38
2023-03-25T03:24:52.963Z,100119.20
2023-03-25T03:27:43.706Z,100118.70
2023-03-25T03:30:16.674Z,100118.37
2023-03-25T03:32:57.820Z,100120.53
2023-03-25T03:35:31.678Z,100113.88
2023-03-25T03:38:03.733Z,100113.05
2023-03-25T03:40:34.941Z,100103.23
2023-03-25T03:43:07.380Z,100097.59
2023-03-25T03:45:42.676Z,100096.06
2023-03-25T03:48:23.960Z,100088.28
2023-03-25T03:50:57.998Z,100096.27
2023-03-25T03:53:39.118Z,100089.61
2023-03-25T03:56:19.561Z,100098.59
2023-03-25T03:58:49.775Z,100097.06
2023-03-25T04:01:24.076Z,100088.78
2023-03-25T04:03:59.171Z,100105.89
2023-03-25T04:06:33.335Z,100093.61
2023-03-25T04:09:06.532Z,100097.59
2023-03-25T04:11:44.451Z,100102.92
2023-03-25T04:14:14.888Z,100098.30
2023-03-25T04:16:45.920Z,100105.25
2023-03-25T04:19:17.008Z,100106.59
2023-03-25T04:21:48.903Z,100096.96
2023-03-25T04:24:19.776Z,100099.33
2023-03-25T04:26:49.998Z,100104.65
2023-03-25T04:29:19.372Z,100110.47
2023-03-25T04:31:50.105Z,100111.80
2023-03-25T04:34:20.719Z,100102.29
2023-03-25T04:36:54.858Z,100102.29
2023-03-25T04:39:25.755Z,100088.67
2023-03-25T04:41:56.595Z,100098.30
2023-03-25T04:44:26.129Z,100095.83
2023-03-25T04:46:59.237Z,100101.66
2023-03-25T04:49:28.520Z,100107.31
2023-03-25T04:51:57.983Z,100121.42
2023-03-25T04:54:27.349Z,100112.94
2023-03-25T04:56:58.552Z,100118.46
2023-03-25T04:59:28.212Z,100118.96
2023-03-25T05:01:57.674Z,100119.98
2023-03-25T05:04:27.130Z,100127.98
2023-03-25T05:06:56.911Z,100129.31
2023-03-25T05:09:26.828Z,100120.69
2023-03-25T05:11:56.409Z,100126.34
2023-03-25T05:14:25.699Z,100130.64
2023-03-25T05:16:56.648Z,100117.02
2023-03-25T05:19:25.936Z,100121.32
2023-03-25T05:21:56.334Z,100132.47
2023-03-25T05:24:26.331Z,100136.16
2023-03-25T05:26:55.641Z,100147.65
2023-03-25T05:29:24.963Z,100144.98
2023-03-25T05:31:54.349Z,100138.83
2023-03-25T05:34:25.674Z,100135.33
2023-03-25T05:36:54.992Z,100138.52
2023-03-25T05:39:24.431Z,100131.34
2023-03-25T05:41:55.373Z,100131.34
2023-03-25T05:44:26.278Z,100139.02
2023-03-25T05:46:56.545Z,100151.31
2023-03-25T05:49:27.231Z,100155.00
2023-03-25T05:51:57.064Z,100157.66
2023-03-25T05:54:26.553Z,100165.95
2023-03-25T05:56:56.158Z,100168.61
2023-03-25T05:59:25.931Z,100168.81
2023-03-25T06:01:55.221Z,100175.16
2023-03-25T06:04:24.912Z,100178.46
2023-03-25T06:06:54.188Z,100172.30
2023-03-25T06:09:23.648Z,100167.17
2023-03-25T06:11:53.711Z,100172.80
2023-03-25T06:14:25.111Z,100166.87
2023-03-25T06:16:56.016Z,100165.34
2023-03-25T06:19:26.534Z,100168.70
2023-03-25T06:21:56.061Z,100166.15
2023-03-25T06:24:25.374Z,100179.46
2023-03-25T06:26:54.653Z,100172.00
2023-03-25T06:29:24.206Z,100176.49
2023-03-25T06:31:53.506Z,100178.12
2023-03-25T06:34:23.751Z,100178.96
2023-03-25T06:36:54.189Z,100191.14
2023-03-25T06:39:23.513Z,100185.31
2023-03-25T06:41:54.095Z,100198.62
2023-03-25T06:44:25.401Z,100193.80
2023-03-25T06:47:12.564Z,100191.64
2023-03-25T06:49:44.096Z,100184.98
2023-03-25T06:52:17.456Z,100191.64
2023-03-25T06:54:54.105Z,100202.28
2023-03-25T06:57:23.556Z,100187.45
2023-03-25T07:00:02.790Z,100203.56
2023-03-25T07:02:32.869Z,100187.26
2023-03-25T07:05:10.410Z,100191.73
2023-03-25T07:07:40.492Z,100197.06
2023-03-25T07:10:12.963Z,100204.03
2023-03-25T07:12:43.401Z,100201.56
2023-03-25T07:15:13.399Z,100210.98
2023-03-25T07:17:43.357Z,100212.81
2023-03-25T07:20:16.879Z,100217.44
2023-03-25T07:22:47.354Z,100217.94
2023-03-25T07:25:26.735Z,100216.94
2023-03-25T07:27:56.331Z,100209.34
2023-03-25T07:30:26.057Z,100211.48
2023-03-25T07:32:55.366Z,100206.73
2023-03-25T07:35:25.106Z,100209.09
2023-03-25T07:37:54.399Z,100206.30
2023-03-25T07:40:23.968Z,100219.12
2023-03-25T07:42:53.282Z,100213.16
2023-03-25T07:45:24.321Z,100216.84
2023-03-25T07:47:54.389Z,100223.31
2023-03-25T07:50:25.296Z,100228.53
2023-03-25T07:52:56.133Z,100231.00
2023-03-25T07:55:25.858Z,100224.84
2023-03-25T07:57:56.393Z,100230.55
2023-03-25T08:00:26.068Z,100233.85
2023-03-25T08:02:55.636Z,100230.75
2023-03-25T08:05:25.404Z,100242.84
2023-03-25T08:07:55.535Z,100225.70
2023-03-25T08:10:25.441Z,100249.50
2023-03-25T08:12:55.186Z,100241.51
2023-03-25T08:15:25.044Z,100241.59
2023-03-25T08:17:54.506Z,100249.78
2023-03-25T08:20:24.382Z,100253.28
2023-03-25T08:22:53.763Z,100257.88
2023-03-25T08:25:23.424Z,100257.58
2023-03-25T08:27:52.852Z,100256.55
2023-03-25T08:30:22.991Z,100260.05
2023-03-25T08:32:53.964Z,100253.58
2023-03-25T08:35:24.750Z,100262.59
2023-03-25T08:37:54.056Z,100260.63
2023-03-25T08:40:23.411Z,100259.41
2023-03-25T08:42:52.873Z,100258.27
2023-03-25T08:45:22.195Z,100259.59
2023-03-25T08:47:51.650Z,100261.46
2023-03-25T08:50:21.397Z,100250.47
2023-03-25T08:52:52.401Z,100256.00
2023-03-25T08:55:21.758Z,100251.00
2023-03-25T08:57:51.278Z,100255.80
2023-03-25T09:00:22.741Z,100249.67
2023-03-25T09:02:52.115Z,100261.66
2023-03-25T09:05:21.988Z,100260.33
2023-03-25T09:07:52.781Z,100258.46
2023-03-25T09:10:28.341Z,100265.95
2023-03-25T09:12:58.945Z,100268.62
2023-03-25T09:15:30.279Z,100262.66
2023-03-25T09:18:06.263Z,100258.98
2023-03-25T09:20:43.570Z,100271.97
2023-03-25T09:23:14.709Z,100276.91
2023-03-25T09:25:45.288Z,100281.80
2023-03-25T09:28:14.643Z,100284.69
2023-03-25T09:30:44.276Z,100277.97
2023-03-25T09:33:14.161Z,100286.60
2023-03-25T09:35:43.897Z,100290.07
2023-03-25T09:38:13.764Z,100286.21
2023-03-25T09:40:44.210Z,100282.27
2023-03-25T09:43:35.266Z,100286.60
2023-03-25T09:46:05.338Z,100279.22
2023-03-25T09:48:57.376Z,100293.95
2023-03-25T09:51:31.724Z,100295.67
2023-03-25T09:54:16.528Z,100294.26
2023-03-25T09:56:46.297Z,100281.63
2023-03-25T09:59:19.040Z,100291.48
2023-03-25T10:02:11.142Z,100277.03
2023-03-25T10:05:00.654Z,100290.41
2023-03-25T10:07:54.290Z,100289.38
2023-03-25T10:10:51.520Z,100285.88
2023-03-25T10:13:30.472Z,100292.53
2023-03-25T10:16:09.306Z,100292.23
2023-03-25T10:18:56.789Z,100294.26
2023-03-25T10:21:41.875Z,100291.93
2023-03-25T10:24:28.995Z,100298.59
2023-03-25T10:27:18.191Z,100305.25
2023-03-25T10:29:56.767Z,100309.55
2023-03-25T10:32:44.920Z,100309.55
2023-03-25T10:35:20.371Z,100304.42
2023-03-25T10:37:52.792Z,100314.58
2023-03-25T10:40:31.332Z,100302.59
2023-03-25T10:43:26.294Z,100311.58
2023-03-25T10:46:05.216Z,100308.41
2023-03-25T10:48:34.984Z,100327.26
2023-03-25T10:51:12.567Z,100317.93
2023-03-25T10:53:42.552Z,100327.26
2023-03-25T10:56:23.769Z,100353.40
2023-03-25T10:58:55.970Z,100336.08
2023-03-25T11:01:39.431Z,100348.07
2023-03-25T11:04:11.461Z,100349.06
2023-03-25T11:06:42.695Z,100365.55
2023-03-25T11:09:26.807Z,100365.55
2023-03-25T11:11:56.103Z,100348.56
2023-03-25T11:14:27.891Z,100349.56
2023-03-25T11:17:04.234Z,100333.42
2023-03-25T11:19:54.707Z,100349.06
2023-03-25T11:22:29.604Z,100341.27
2023-03-25T11:25:14.422Z,100343.44
2023-03-25T11:27:47.207Z,100344.77
2023-03-25T11:30:17.514Z,100348.62
2023-03-25T11:32:59.417Z,100350.59
2023-03-25T11:35:31.450Z,100358.09
2023-03-25T11:38:03.086Z,100341.95
2023-03-25T11:40:33.899Z,100345.77
2023-03-25T11:43:04.449Z,100344.63
2023-03-25T11:45:37.758Z,100342.60
2023-03-25T11:48:19.132Z,100345.27
2023-03-25T11:50:56.796Z,100345.45
2023-03-25T11:53:27.985Z,100339.30
2023-03-25T11:56:00.437Z,100337.96
2023-03-25T11:58:33.288Z,100340.97
2023-03-25T12:01:05.950Z,100336.97
2023-03-25T12:03:36.414Z,100341.27
2023-03-25T12:06:09.157Z,100352.95
2023-03-25T12:08:45.125Z,100344.81
2023-03-25T12:11:17.651Z,100346.79
2023-03-25T12:14:04.696Z,100353.45
2023-03-25T12:16:46.056Z,100354.14
2023-03-25T12:19:24.454Z,100344.31
2023-03-25T12:21:57.119Z,100368.30
2023-03-25T12:24:53.670Z,100345.27
2023-03-25T12:27:35.315Z,100356.81
2023-03-25T12:30:08.329Z,100348.07
2023-03-25T12:32:46.620Z,100351.30
2023-03-25T12:35:45.288Z,100356.93
2023-03-25T12:38:23.608Z,100357.12
2023-03-25T12:41:10.078Z,100357.57
2023-03-25T12:43:48.050Z,100355.48
2023-03-25T12:46:23.961Z,100367.66
2023-03-25T12:49:14.537Z,100350.16
2023-03-25T12:52:05.487Z,100353.51
2023-03-25T12:54:43.543Z,100384.34
2023-03-25T12:57:32.857Z,100380.92
2023-03-25T13:00:14.976Z,100380.65
2023-03-25T13:03:13.155Z,100365.03
2023-03-25T13:05:49.056Z,100370.36
2023-03-25T13:08:30.844Z,100390.73
2023-03-25T13:11:06.442Z,100379.96
2023-03-25T13:13:37.200Z,100382.82
2023-03-25T13:16:13.203Z,100375.42
